Terminal Aerodrome Forecast
Issued by NWS

Home | Current Version | Previous Version | Text Only | Print | Product List | Glossary On
Versions: 1 2 3 4 5 6 7 8 9 10 11 12 13
204
FTAK31 PAJN 290816 AAA
TAFAWG
TAF AMD
PAWG 290816Z 2908/3006 VRB03KT P6SM OVC050
     FM291800 28007KT P6SM VCSH SCT015 BKN025 OVC040
     FM300000 29005KT 6SM -SHRA SCT015 OVC025
      AMD LTD TO CLD VIS AND WIND 2906/2915=

USA.gov is the U.S. government's official web portal to all federal, state and local government web resources and services.